• Join FlightAware (Why Join?)
  • Login
  • US Flag 
09:43PM EDT


 

Airport Tracker/Info


-or-


 

Live Flight TrackerFlight Track Log ✈ JZA8106 ✈ 20-Apr-2013 ✈ CYYC - KIAH

Flight Track Log - Related Links

Times and Time Zones

All times are in EDT time to prevent confusion due to time zone crossing. See the JZA8106 flight status page for this flight to view local times or setup timezone preferences in your user account.

Time Position Orientation Groundspeed Altitude Reporting Facility
EDT Latitude Longitude Course Direction KTS MPH feet Rate Location/Type
08:58PM 51.1000 -114.0333 360° North 20 23 3,600  Level Edmonton Center
08:59PM 51.1000 -114.0333 180° South 10 12 3,600  Level Edmonton Center
09:03PM 51.0833 -114.0333 180° South 30 35 3,600  Level Edmonton Center
09:06PM 51.0833 -114.0333 279° West 20 23 3,600  Level Edmonton Center
09:08PM 51.0833 -114.0333 279° West 20 23 3,600  Level Edmonton Center
09:10PM 51.0167 -114.1000 212° Southwest 40 46 3,600  Level Edmonton Center
09:11PM 51.0667 -114.0333 40° Northeast 30 35 3,600  Level Edmonton Center
09:12PM 51.0667 -114.0333 40° Northeast 20 23 3,600  Level Edmonton Center
09:13PM 51.0667 -114.0333 261° West 100 115 3,600 780 Level Edmonton Center
09:14PM 51.1167 -114.0333 360° North 160 184 5,200 1,980 Climbing Edmonton Center
09:15PM 51.1667 -114.0167 12° North 190 219 7,600 2,100 Climbing Edmonton Center
09:16PM 51.1333 -113.9000 114° Southeast 310 357 9,400 2,100 Climbing Edmonton Center
09:17PM 51.0500 -113.8833 173° South 320 368 11,900 2,100 Climbing Edmonton Center
09:18PM 50.9500 -113.8667 174° South 350 403 13,600 1,680 Climbing Edmonton Center
09:19PM 50.8500 -113.8500 174° South 380 437 15,300 1,740 Climbing Edmonton Center
09:20PM 50.7500 -113.8000 162° South 390 449 17,100 1,740 Climbing Edmonton Center
09:21PM 50.6333 -113.7833 175° South 400 460 18,800 1,440 Climbing Edmonton Center
09:22PM 50.5167 -113.7500 170° South 410 472 20,000 1,440 Climbing Edmonton Center
09:23PM 50.4000 -113.7000 165° South 430 495 21,700 1,500 Climbing Edmonton Center
09:24PM 50.2833 -113.6000 151° Southeast 440 506 23,000 1,200 Climbing Edmonton Center
09:25PM 50.1833 -113.5333 157° South 450 518 24,200 960 Climbing Edmonton Center
09:26PM 50.0500 -113.4333 154° Southeast 460 529 25,000 840 Climbing Edmonton Center
09:27PM 49.9333 -113.3333 151° Southeast 480 552 25,900 900 Climbing Edmonton Center
09:28PM 49.8167 -113.2167 147° Southeast 490 564 26,800 1,200 Climbing Edmonton Center
09:29PM 49.7000 -113.1333 155° Southeast 490 564 28,300 1,440 Climbing Edmonton Center
09:30PM 49.5667 -113.0167 150° Southeast 490 564 29,700 1,380 Climbing Edmonton Center
09:31PM 49.4667 -112.9500 157° South 490 564 31,100 1,320 Climbing Edmonton Center
09:32PM 49.3333 -112.8500 154° Southeast 480 552 32,400 1,140 Climbing Edmonton Center
09:33PM 49.2000 -112.7500 154° Southeast 480 552 33,400 960 Climbing Edmonton Center
09:34PM 49.1000 -112.6500 147° Southeast 480 552 34,400 960 Climbing Edmonton Center
09:35PM 49.0000 -112.5167 139° Southeast 480 552 35,400 840 Climbing Edmonton Center
09:36PM 48.9000 -112.3833 139° Southeast 480 552 36,100 540 Climbing Edmonton Center
09:37PM 48.8000 -112.2500 139° Southeast 480 552 36,500 240 Climbing Edmonton Center
09:37PM 48.7914 -112.1806 101° East 489 563 36,500 420 Level Salt Lake Center
09:38PM 48.6878 -112.0433 139° Southeast 494 568 37,100 480 Climbing Salt Lake Center
09:39PM 48.5828 -111.9053 139° Southeast 498 573 37,500 480 Climbing Salt Lake Center
09:40PM 48.4792 -111.7681 139° Southeast 498 573 38,100 540 Climbing Salt Lake Center
09:41PM 48.3750 -111.6314 139° Southeast 497 572 38,700 300 Climbing Salt Lake Center
09:42PM 48.2708 -111.4956 139° Southeast 495 570 38,800 120 Climbing Salt Lake Center
09:43PM 48.1653 -111.3592 139° Southeast 498 573 39,000 60 Climbing Salt Lake Center
09:44PM 48.0586 -111.2222 139° Southeast 502 578 39,000  Level Salt Lake Center
09:45PM 47.9514 -111.0853 139° Southeast 503 579 39,000  Level Salt Lake Center
09:46PM 47.8439 -110.9489 140° Southeast 503 579 39,000  Level Salt Lake Center
09:47PM 47.7367 -110.8133 140° Southeast 502 578 39,000  Level Salt Lake Center
09:48PM 47.6289 -110.6761 139° Southeast 504 580 39,000  Level Salt Lake Center
09:49PM 47.5206 -110.5419 140° Southeast 505 581 39,000  Level Salt Lake Center
09:50PM 47.4128 -110.4083 140° Southeast 505 581 39,000  Level Salt Lake Center
09:51PM 47.2825 -110.2486 140° Southeast 506 582 39,000  Level Salt Lake Center
09:52PM 47.1781 -110.1161 139° Southeast 499 574 39,000 -60 Level Salt Lake Center
09:53PM 47.0714 -109.9831 140° Southeast 501 577 38,900  Descending Salt Lake Center
09:54PM 46.9636 -109.8522 140° Southeast 503 579 39,000  Climbing Salt Lake Center
09:55PM 46.8550 -109.7214 141° Southeast 506 582 39,000 -60 Level Salt Lake Center
09:56PM 46.7478 -109.5914 140° Southeast 503 579 38,900  Descending Salt Lake Center
09:57PM 46.6319 -109.4625 143° Southeast 504 580 39,000  Climbing Salt Lake Center
09:59PM 46.5303 -109.3350 139° Southeast 505 581 39,000  Level Salt Lake Center
10:00PM 46.4092 -109.1925 141° Southeast 503 579 39,000  Level Salt Lake Center
10:01PM 46.3044 -109.0697 141° Southeast 506 582 39,000  Level Salt Lake Center
10:02PM 46.1819 -108.9269 141° Southeast 507 583 39,000  Level Salt Lake Center
10:03PM 46.0786 -108.8069 141° Southeast 499 574 39,000  Level Salt Lake Center
10:04PM 45.9733 -108.6856 141° Southeast 504 580 39,000  Level Salt Lake Center
10:05PM 45.8508 -108.5431 141° Southeast 507 583 39,000  Level Salt Lake Center
10:06PM 45.7436 -108.4228 142° Southeast 508 585 39,000  Level Salt Lake Center
10:07PM 45.6375 -108.3014 141° Southeast 511 588 39,000  Level Salt Lake Center
10:08PM 45.5142 -108.1611 141° Southeast 509 586 39,000  Level Salt Lake Center
10:09PM 45.4081 -108.0411 142° Southeast 507 583 39,000  Level Salt Lake Center
10:10PM 45.3028 -107.9231 142° Southeast 502 578 39,000  Level Salt Lake Center
10:11PM 45.1783 -107.7850 142° Southeast 504 580 39,000  Level Salt Lake Center
10:12PM 45.0717 -107.6656 142° Southeast 506 582 39,000  Level Salt Lake Center
10:13PM 44.9658 -107.5489 142° Southeast 499 574 39,000  Level Salt Lake Center
10:14PM 44.8411 -107.4122 142° Southeast 502 578 39,000  Level Salt Lake Center
10:15PM 44.7347 -107.2981 143° Southeast 499 574 39,000  Level Salt Lake Center
10:16PM 44.6292 -107.1828 142° Southeast 501 577 39,000  Level Salt Lake Center
10:17PM 44.5058 -107.0511 143° Southeast 499 574 39,000  Level Salt Lake Center
10:18PM 44.3994 -106.9367 142° Southeast 502 578 39,000  Level Salt Lake Center
10:19PM 44.2933 -106.8247 143° Southeast 501 577 39,000  Level Salt Lake Center
10:20PM 44.1708 -106.6917 142° Southeast 501 577 39,000  Level Salt Lake Center
10:21PM 44.0653 -106.5783 142° Southeast 502 578 39,000  Level Salt Lake Center
10:22PM 43.9564 -106.4644 143° Southeast 505 581 39,000  Level Salt Lake Center
10:23PM 43.8322 -106.3342 143° Southeast 503 579 39,000  Level Salt Lake Center
10:24PM 43.7264 -106.2225 143° Southeast 501 577 39,000  Level Salt Lake Center
10:25PM 43.6019 -106.0931 143° Southeast 503 579 39,000  Level Denver Center
10:26PM 43.4950 -105.9817 143° Southeast 504 580 39,000  Level Denver Center
10:27PM 43.3703 -105.8525 143° Southeast 504 580 39,000  Level Denver Center
10:28PM 43.2625 -105.7428 143° Southeast 504 580 39,000  Level Denver Center
10:29PM 43.1564 -105.6325 143° Southeast 501 577 39,000  Level Denver Center
10:30PM 43.0306 -105.5047 143° Southeast 505 581 39,000  Level Denver Center
10:31PM 42.9233 -105.3969 144° Southeast 501 577 39,000  Level Denver Center
10:32PM 42.8158 -105.2886 144° Southeast 503 579 39,000  Level Denver Center
10:33PM 42.6903 -105.1631 144° Southeast 502 578 39,000  Level Denver Center
10:34PM 42.5828 -105.0556 144° Southeast 504 580 39,000  Level Denver Center
10:35PM 42.4942 -104.9681 144° Southeast 501 577 39,000  Level Denver Center
10:36PM 42.3519 -104.8272 144° Southeast 502 578 39,000  Level Denver Center
10:37PM 42.2278 -104.7058 144° Southeast 499 574 39,000  Level Denver Center
10:38PM 42.1211 -104.6006 144° Southeast 499 574 39,000  Level Denver Center
10:39PM 42.0147 -104.4964 144° Southeast 497 572 39,000  Level Denver Center
10:40PM 41.8897 -104.3753 144° Southeast 497 572 39,000  Level Denver Center
10:41PM 41.7833 -104.2717 144° Southeast 497 572 39,000  Level Denver Center
10:42PM 41.6747 -104.1697 145° Southeast 498 573 39,000  Level Denver Center
10:43PM 41.5492 -104.0497 144° Southeast 497 572 39,000  Level Denver Center
10:44PM 41.4419 -103.9461 144° Southeast 499 574 39,000  Level Denver Center
10:45PM 41.3344 -103.8444 145° Southeast 495 570 39,000  Level Denver Center
10:46PM 41.2094 -103.7256 144° Southeast 495 570 39,000  Level Denver Center
10:47PM 41.1008 -103.6239 145° Southeast 496 571 39,000  Level Denver Center
10:48PM 40.9786 -103.5086 145° Southeast 494 568 39,000  Level Denver Center
10:49PM 40.8642 -103.4033 145° Southeast 495 570 39,000  Level Denver Center
10:50PM 40.7506 -103.2975 145° Southeast 494 568 39,000  Level Denver Center
10:51PM 40.6369 -103.1928 145° Southeast 493 567 39,000  Level Denver Center
10:52PM 40.5236 -103.0878 145° Southeast 493 567 39,000  Level Denver Center
10:53PM 40.4089 -102.9831 145° Southeast 495 570 39,000  Level Denver Center
10:54PM 40.2950 -102.8792 145° Southeast 494 568 39,000  Level Denver Center
10:56PM 40.1806 -102.7761 145° Southeast 495 570 39,000  Level Denver Center
10:57PM 40.0731 -102.6789 145° Southeast 496 571 39,000  Level Denver Center
10:58PM 39.9644 -102.5817 146° Southeast 496 571 39,000  Level Denver Center
10:59PM 39.8375 -102.4669 145° Southeast 498 573 39,000  Level Denver Center
11:00PM 39.7289 -102.3700 146° Southeast 497 572 39,000  Level Denver Center
11:01PM 39.6192 -102.2722 146° Southeast 499 574 39,000  Level Denver Center
11:02PM 39.4919 -102.1608 146° Southeast 496 571 39,000  Level Denver Center
11:03PM 39.3831 -102.0633 145° Southeast 497 572 39,000  Level Denver Center
11:04PM 39.2592 -101.9558 146° Southeast 502 578 39,000  Level Denver Center
11:05PM 39.1492 -101.8589 146° Southeast 502 578 39,000  Level Denver Center
11:06PM 39.0381 -101.7622 146° Southeast 503 579 39,000  Level Denver Center
11:07PM 38.9086 -101.6489 146° Southeast 502 578 39,000  Level Denver Center
11:08PM 38.7978 -101.5539 146° Southeast 501 577 39,000  Level Denver Center
11:09PM 38.6867 -101.4583 146° Southeast 502 578 39,000  Level Denver Center
11:10PM 38.5569 -101.3475 146° Southeast 501 577 39,000  Level Denver Center
11:11PM 38.4461 -101.2519 146° Southeast 501 577 39,000  Level Denver Center
11:12PM 38.3353 -101.1583 146° Southeast 500 575 39,000  Level Denver Center
11:13PM 38.2050 -101.0481 146° Southeast 502 578 39,000  Level Denver Center
11:14PM 38.0939 -100.9542 146° Southeast 500 575 39,000  Level Denver Center
11:15PM 37.9822 -100.8600 146° Southeast 500 575 39,000  Level Denver Center
11:15PM 37.8894 -100.7814 146° Southeast 498 573 39,000  Level Kansas City Center
11:17PM 37.7656 -100.6786 147° Southeast 499 574 39,000  Level Kansas City Center
11:18PM 37.6489 -100.5822 147° Southeast 500 575 39,000  Level Kansas City Center
11:19PM 37.5328 -100.4853 146° Southeast 499 574 39,000  Level Kansas City Center
11:20PM 37.4208 -100.3933 147° Southeast 498 573 39,000  Level Kansas City Center
11:21PM 37.3100 -100.3019 147° Southeast 498 573 39,000  Level Kansas City Center
11:22PM 37.1797 -100.1958 147° Southeast 499 574 39,000  Level Kansas City Center
11:23PM 37.0678 -100.1044 147° Southeast 500 575 39,000  Level Kansas City Center
11:24PM 36.9489 -100.0072 147° Southeast 502 578 39,000  Level Kansas City Center
11:25PM 36.8319 -99.9125 147° Southeast 501 577 39,000  Level Kansas City Center
11:26PM 36.7139 -99.8181 147° Southeast 502 578 39,000  Level Kansas City Center
11:27PM 36.5967 -99.7228 147° Southeast 501 577 39,000  Level Kansas City Center
11:28PM 36.4794 -99.6292 147° Southeast 500 575 39,000  Level Kansas City Center
11:29PM 36.3617 -99.5350 147° Southeast 501 577 39,000  Level Kansas City Center
11:30PM 36.2428 -99.4406 147° Southeast 505 581 39,000  Level Kansas City Center
11:31PM 36.1200 -99.3433 147° Southeast 505 581 39,000  Level Kansas City Center
11:32PM 36.0014 -99.2494 147° Southeast 506 582 39,000  Level Kansas City Center
11:33PM 35.8836 -99.1561 147° Southeast 505 581 39,000  Level Kansas City Center
11:33PM 35.7975 -99.0897 148° Southeast 447 514 39,000  Level Fort Worth Center
11:34PM 35.6775 -99.0003 149° Southeast 477 549 39,000  Level Fort Worth Center
11:35PM 35.5536 -98.9139 150° Southeast 496 571 39,000  Level Fort Worth Center
11:36PM 35.4192 -98.8222 151° Southeast 502 578 39,000  Level Fort Worth Center
11:37PM 35.2969 -98.7386 151° Southeast 502 578 39,000  Level Fort Worth Center
11:38PM 35.1728 -98.6556 151° Southeast 502 578 39,000  Level Fort Worth Center
11:39PM 35.0506 -98.5700 150° Southeast 502 578 39,000  Level Fort Worth Center
11:40PM 34.9303 -98.4897 151° Southeast 496 571 39,000  Level Fort Worth Center
11:41PM 34.8097 -98.4100 151° Southeast 496 571 39,000  Level Fort Worth Center
11:42PM 34.6875 -98.3278 151° Southeast 496 571 39,000  Level Fort Worth Center
11:43PM 34.5628 -98.2456 151° Southeast 496 571 39,000  Level Fort Worth Center
11:44PM 34.4403 -98.1639 151° Southeast 496 571 39,000  Level Fort Worth Center
11:45PM 34.3197 -98.0825 151° Southeast 496 571 39,000  Level Fort Worth Center
11:46PM 34.1950 -97.9986 151° Southeast 496 571 39,000  Level Fort Worth Center
11:47PM 34.0764 -97.9175 150° Southeast 496 571 39,000  Level Fort Worth Center
11:48PM 33.9661 -97.8442 151° Southeast 496 571 39,000  Level Fort Worth Center
11:49PM 33.8431 -97.7611 151° Southeast 501 577 39,000  Level Fort Worth Center
11:50PM 33.7244 -97.6831 151° Southeast 489 563 39,000  Level Fort Worth Center
11:51PM 33.6033 -97.6056 152° Southeast 489 563 39,000  Level Fort Worth Center
11:52PM 33.4867 -97.5256 150° Southeast 489 563 39,000  Level Fort Worth Center
11:53PM 33.3678 -97.4508 152° Southeast 489 563 39,000  Level Fort Worth Center
11:54PM 33.2467 -97.3711 151° Southeast 489 563 39,000  Level Fort Worth Center
11:55PM 33.1172 -97.2869 151° Southeast 489 563 39,000  Level Fort Worth Center
11:56PM 32.9919 -97.2078 152° Southeast 494 568 39,000  Level Fort Worth Center
11:57PM 32.8706 -97.1289 151° Southeast 494 568 39,000  Level Fort Worth Center
11:58PM 32.7744 -97.0675 152° Southeast 494 568 39,000  Level Fort Worth Center
11:59PM 32.6406 -96.9817 152° Southeast 500 575 39,000  Level Fort Worth Center
12:00AM 32.5003 -96.8936 152° Southeast 474 545 39,000  Level Fort Worth Center
12:01AM 32.3914 -96.8253 152° Southeast 490 564 39,000  Level Fort Worth Center
12:02AM 32.2700 -96.7450 151° Southeast 496 571 39,000  Level Fort Worth Center
12:04AM 32.0283 -96.5925 152° Southeast 500 575 39,000  Level Houston Center
12:05AM 31.9028 -96.5172 153° Southeast 499 574 39,000  Level Houston Center
12:06AM 31.7742 -96.4500 156° South 499 574 39,000  Level Houston Center
12:07AM 31.6464 -96.3819 156° South 498 573 39,000 -60 Level Houston Center
12:08AM 31.5161 -96.3144 156° South 504 580 38,900 -1,620 Descending Houston Center
12:09AM 31.3864 -96.2464 156° South 503 579 35,800 -3,120 Descending Houston Center
12:10AM 31.2553 -96.1781 156° South 506 582 32,700 -3,180 Descending Houston Center
12:11AM 31.1303 -96.1144 156° South 487 560 29,500 -3,060 Descending Houston Center
12:12AM 31.0147 -96.0553 156° South 470 541 26,600 -3,240 Descending Houston Center
12:13AM 30.9189 -96.0058 156° South 451 519 23,900 -3,120 Descending Houston Center
12:13AM 30.9017 -95.9972 157° South 450 518 23,500 -2,820 Descending Houston Center
12:14AM 30.7928 -95.9411 156° South 431 496 20,400 -3,240 Descending Houston Center
12:15AM 30.6833 -95.9042 164° South 394 453 17,200 -3,240 Descending Houston Center
12:16AM 30.5753 -95.8681 164° South 382 440 14,100 -2,280 Descending Houston Center
12:18AM 30.4833 -95.8397 165° South 364 419 12,500 -1,500 Descending Houston Center
12:19AM 30.3992 -95.8125 164° South 321 369 11,000 -1,500 Descending Houston Center
12:20AM 30.3203 -95.7875 165° South 298 343 9,500 -1,440 Descending Houston Center
12:21AM 30.2478 -95.7650 165° South 276 318 8,100 -1,260 Descending Houston Center
12:22AM 30.1794 -95.7431 164° South 258 297 7,000 -1,200 Descending Houston Center
12:23AM 30.1028 -95.7200 165° South 225 259 5,600 -1,080 Descending Houston Center
12:24AM 30.0606 -95.7058 164° South 216 249 4,900 -780 Descending Houston Center
12:25AM 30.0072 -95.6889 165° South 204 235 4,100 -720 Descending Houston Center
12:25AM 29.9931 -95.6678 128° Southeast 182 209 4,000 -120 Descending Houston Center
12:26AM 29.9933 -95.6372 89° East 185 213 4,000  Level Houston Center
12:26AM 29.9922 -95.6100 93° East 180 207 4,000  Level Houston Center
12:27AM 29.9922 -95.5800 90° East 181 208 4,000 -480 Level Houston Center
12:27AM 29.9931 -95.5497 88° East 174 200 3,500 -1,020 Descending Houston Center
12:28AM 29.9942 -95.5242 87° East 176 203 3,000 -1,020 Descending Houston Center
12:28AM 29.9919 -95.4919 95° East 174 200 2,500 -900 Descending Houston Center
12:29AM 29.9936 -95.4692 85° East 175 201 2,100 -900 Descending Houston Center
12:29AM 29.9919 -95.4436 94° East 150 173 1,600 -840 Descending Houston Center
12:30AM 29.9939 -95.4219 84° East 164 189 1,300 -780 Descending Houston Center
12:30AM 29.9922 -95.4025 96° East 138 159 900 -840 Descending Houston Center
12:31AM 29.9944 -95.3789 84° East 149 171 500 -300 Descending Houston Center
12:32AM 29.9947 -95.3364 90° East 146 168 400 -120 Descending Houston Center